^^

..:: Storico WU ::..




Lo storico viene creato da WUnderground con i dati che la stazione Meteomincio invia al loro server. L' aggiornamento viene fatto ogni 5 minuti circa, tuttavia possono esserci intervalli pił ampi a causa di errori, interruzioni di servizio o problemi nell' invio tramite FTP.


Storico stazione MeteoMincio
Giorno Sommario per Febbario 01, 2022 Unità:  Metrico    Inglese   Entrambi
Giorno Settimana Mese Anno
  Max: Min: Media:
Temperatura: 15.0 °C 1.0 °C 6.6 °C
Dew Point: 1.0 °C -4.0 °C -1.7 °C
Umidità: 81% 28% 58%
Velocità vento: 17km/h 0km/h 8.1km/h
Raffica: 24km/h - -
Direzione- - West
Pressione: 1014.9 hPa 1009.0 hPa -
Precipitazioni: 0.00 mm    
 
 
Tabulato Dati per Febbario 01, 2022
Ora Temperatura Dew Point Pressione Direzione Velocità vento Raffica Umidità Intensità pioggia (oraria) Info solare Situazione
00:04 2.0 °C -1.0 °C 1009.2 hPa WSW 8 km/h 10 km/h 81% 0.00 mm 0.00 W/m2 unknown
00:09 1.0 °C -2.0 °C 1009.2 hPa WSW 9 km/h 11 km/h 81% 0.00 mm 0.00 W/m2 unknown
00:14 1.0 °C -2.0 °C 1009.2 hPa WSW 9 km/h 13 km/h 81% 0.00 mm 0.00 W/m2 unknown
00:19 1.0 °C -2.0 °C 1009.2 hPa West 10 km/h 13 km/h 81% 0.00 mm 0.00 W/m2 unknown
00:24 1.0 °C -2.0 °C 1009.1 hPa West 13 km/h 18 km/h 81% 0.00 mm 0.00 W/m2 unknown
00:29 3.0 °C -2.0 °C 1009.0 hPa WNW 15 km/h 19 km/h 79% 0.00 mm 0.00 W/m2 unknown
00:34 3.0 °C -2.0 °C 1009.0 hPa WNW 13 km/h 19 km/h 74% 0.00 mm 0.00 W/m2 unknown
00:39 3.0 °C -2.0 °C 1009.4 hPa WNW 12 km/h 19 km/h 69% 0.00 mm 0.00 W/m2 unknown
00:44 3.0 °C -2.0 °C 1009.4 hPa West 11 km/h 17 km/h 68% 0.00 mm 0.00 W/m2 unknown
00:49 3.0 °C -2.0 °C 1009.4 hPa WNW 11 km/h 16 km/h 68% 0.00 mm 0.00 W/m2 unknown
00:54 3.0 °C -2.0 °C 1009.4 hPa West 14 km/h 17 km/h 68% 0.00 mm 0.00 W/m2 unknown
00:59 3.0 °C -2.0 °C 1009.4 hPa West 13 km/h 17 km/h 69% 0.00 mm 0.00 W/m2 unknown
01:04 3.0 °C -2.0 °C 1009.3 hPa WNW 13 km/h 17 km/h 69% 0.00 mm 0.00 W/m2 unknown
01:09 3.0 °C -2.0 °C 1009.2 hPa WNW 14 km/h 19 km/h 69% 0.00 mm 0.00 W/m2 unknown
01:14 3.0 °C -2.0 °C 1009.2 hPa WNW 12 km/h 19 km/h 67% 0.00 mm 0.00 W/m2 unknown
01:19 3.0 °C -2.0 °C 1009.3 hPa WNW 12 km/h 17 km/h 67% 0.00 mm 0.00 W/m2 unknown
01:24 3.0 °C -2.0 °C 1009.2 hPa WNW 11 km/h 16 km/h 68% 0.00 mm 0.00 W/m2 unknown
01:29 3.0 °C -2.0 °C 1009.2 hPa WNW 8 km/h 11 km/h 69% 0.00 mm 0.00 W/m2 unknown
01:34 3.0 °C -2.0 °C 1009.4 hPa NW 11 km/h 15 km/h 69% 0.00 mm 0.00 W/m2 unknown
01:39 3.0 °C -2.0 °C 1009.5 hPa NW 11 km/h 15 km/h 68% 0.00 mm 0.00 W/m2 unknown
01:44 3.0 °C -2.0 °C 1009.5 hPa WNW 11 km/h 15 km/h 67% 0.00 mm 0.00 W/m2 unknown
01:49 3.0 °C -2.0 °C 1009.6 hPa WNW 11 km/h 14 km/h 67% 0.00 mm 0.00 W/m2 unknown
01:54 3.0 °C -3.0 °C 1009.7 hPa WNW 11 km/h 15 km/h 66% 0.00 mm 0.00 W/m2 unknown
01:59 3.0 °C -3.0 °C 1009.6 hPa WNW 11 km/h 15 km/h 67% 0.00 mm 0.00 W/m2 unknown
02:04 3.0 °C -3.0 °C 1009.7 hPa WNW 8 km/h 13 km/h 68% 0.00 mm 0.00 W/m2 unknown
02:09 3.0 °C -3.0 °C 1009.7 hPa WNW 10 km/h 14 km/h 68% 0.00 mm 0.00 W/m2 unknown
02:14 3.0 °C -3.0 °C 1009.7 hPa NW 11 km/h 15 km/h 69% 0.00 mm 0.00 W/m2 unknown
02:19 3.0 °C -3.0 °C 1009.7 hPa WNW 10 km/h 14 km/h 68% 0.00 mm 0.00 W/m2 unknown
02:24 3.0 °C -3.0 °C 1009.6 hPa WNW 10 km/h 15 km/h 68% 0.00 mm 0.00 W/m2 unknown
02:29 3.0 °C -3.0 °C 1009.6 hPa West 8 km/h 14 km/h 67% 0.00 mm 0.00 W/m2 unknown
02:34 3.0 °C -3.0 °C 1009.5 hPa WSW 8 km/h 11 km/h 70% 0.00 mm 0.00 W/m2 unknown
02:39 2.0 °C -3.0 °C 1009.6 hPa SW 9 km/h 11 km/h 72% 0.00 mm 0.00 W/m2 unknown
02:44 2.0 °C -2.0 °C 1009.7 hPa SW 7 km/h 11 km/h 76% 0.00 mm 0.00 W/m2 unknown
02:49 2.0 °C -3.0 °C 1009.7 hPa WSW 9 km/h 11 km/h 72% 0.00 mm 0.00 W/m2 unknown
02:54 2.0 °C -3.0 °C 1009.6 hPa WSW 10 km/h 14 km/h 72% 0.00 mm 0.00 W/m2 unknown
02:59 2.0 °C -3.0 °C 1009.6 hPa WSW 9 km/h 14 km/h 71% 0.00 mm 0.00 W/m2 unknown
03:04 2.0 °C -3.0 °C 1009.6 hPa West 10 km/h 11 km/h 71% 0.00 mm 0.00 W/m2 unknown
03:09 2.0 °C -3.0 °C 1009.5 hPa West 10 km/h 11 km/h 71% 0.00 mm 0.00 W/m2 unknown
03:14 1.0 °C -3.0 °C 1009.4 hPa West 11 km/h 15 km/h 72% 0.00 mm 0.00 W/m2 unknown
03:19 2.0 °C -3.0 °C 1009.3 hPa West 11 km/h 15 km/h 72% 0.00 mm 0.00 W/m2 unknown
03:24 2.0 °C -3.0 °C 1009.3 hPa West 10 km/h 14 km/h 70% 0.00 mm 0.00 W/m2 unknown
03:29 3.0 °C -3.0 °C 1009.4 hPa West 10 km/h 15 km/h 69% 0.00 mm 0.00 W/m2 unknown
03:34 3.0 °C -3.0 °C 1009.4 hPa West 11 km/h 17 km/h 67% 0.00 mm 0.00 W/m2 unknown
03:39 3.0 °C -3.0 °C 1009.3 hPa West 10 km/h 16 km/h 68% 0.00 mm 0.00 W/m2 unknown
03:44 2.0 °C -3.0 °C 1009.3 hPa West 10 km/h 13 km/h 70% 0.00 mm 0.00 W/m2 unknown
03:49 2.0 °C -3.0 °C 1009.3 hPa West 9 km/h 11 km/h 71% 0.00 mm 0.00 W/m2 unknown
03:54 2.0 °C -3.0 °C 1009.3 hPa West 9 km/h 11 km/h 71% 0.00 mm 0.00 W/m2 unknown
03:59 2.0 °C -3.0 °C 1009.4 hPa West 10 km/h 13 km/h 73% 0.00 mm 0.00 W/m2 unknown
04:04 1.0 °C -3.0 °C 1009.4 hPa West 10 km/h 13 km/h 74% 0.00 mm 0.00 W/m2 unknown
04:09 2.0 °C -3.0 °C 1009.5 hPa WNW 12 km/h 17 km/h 74% 0.00 mm 0.00 W/m2 unknown
04:14 3.0 °C -2.0 °C 1009.7 hPa WNW 15 km/h 19 km/h 73% 0.00 mm 0.00 W/m2 unknown
04:19 3.0 °C -2.0 °C 1009.7 hPa WNW 14 km/h 19 km/h 69% 0.00 mm 0.00 W/m2 unknown
04:24 3.0 °C -2.0 °C 1009.7 hPa WNW 14 km/h 19 km/h 67% 0.00 mm 0.00 W/m2 unknown
04:29 3.0 °C -2.0 °C 1009.7 hPa WNW 14 km/h 19 km/h 67% 0.00 mm 0.00 W/m2 unknown
04:34 3.0 °C -2.0 °C 1009.7 hPa WNW 14 km/h 19 km/h 67% 0.00 mm 0.00 W/m2 unknown
04:39 3.0 °C -2.0 °C 1009.7 hPa WNW 17 km/h 21 km/h 67% 0.00 mm 0.00 W/m2 unknown
04:44 3.0 °C -2.0 °C 1009.6 hPa WNW 17 km/h 23 km/h 67% 0.00 mm 0.00 W/m2 unknown
04:49 4.0 °C -2.0 °C 1009.6 hPa WNW 17 km/h 24 km/h 67% 0.00 mm 0.00 W/m2 unknown
04:54 4.0 °C -2.0 °C 1009.8 hPa West 17 km/h 24 km/h 66% 0.00 mm 0.00 W/m2 unknown
04:59 4.0 °C -2.0 °C 1009.8 hPa West 17 km/h 23 km/h 65% 0.00 mm 0.00 W/m2 unknown
05:04 4.0 °C -2.0 °C 1009.9 hPa West 16 km/h 23 km/h 65% 0.00 mm 0.00 W/m2 unknown
05:09 4.0 °C -2.0 °C 1010.1 hPa West 15 km/h 21 km/h 66% 0.00 mm 0.00 W/m2 unknown
05:14 4.0 °C -2.0 °C 1010.1 hPa West 14 km/h 19 km/h 68% 0.00 mm 0.00 W/m2 unknown
05:19 3.0 °C -2.0 °C 1010.0 hPa West 16 km/h 19 km/h 69% 0.00 mm 0.00 W/m2 unknown
05:24 3.0 °C -2.0 °C 1010.1 hPa West 17 km/h 24 km/h 70% 0.00 mm 0.00 W/m2 unknown
05:29 3.0 °C -2.0 °C 1010.3 hPa West 17 km/h 24 km/h 70% 0.00 mm 0.00 W/m2 unknown
05:34 3.0 °C -2.0 °C 1010.4 hPa West 16 km/h 21 km/h 70% 0.00 mm 0.00 W/m2 unknown
05:39 3.0 °C -2.0 °C 1010.5 hPa WSW 14 km/h 19 km/h 72% 0.00 mm 0.00 W/m2 unknown
05:44 3.0 °C -2.0 °C 1010.7 hPa WSW 13 km/h 19 km/h 74% 0.00 mm 0.00 W/m2 unknown
05:49 2.0 °C -2.0 °C 1010.8 hPa WSW 14 km/h 18 km/h 74% 0.00 mm 0.00 W/m2 unknown
05:54 2.0 °C -2.0 °C 1011.0 hPa WSW 16 km/h 21 km/h 74% 0.00 mm 0.00 W/m2 unknown
05:59 2.0 °C -2.0 °C 1011.1 hPa West 15 km/h 21 km/h 73% 0.00 mm 0.00 W/m2 unknown
06:04 2.0 °C -2.0 °C 1011.2 hPa West 14 km/h 19 km/h 72% 0.00 mm 0.00 W/m2 unknown
06:09 3.0 °C -2.0 °C 1011.1 hPa WSW 11 km/h 16 km/h 72% 0.00 mm 0.00 W/m2 unknown
06:14 3.0 °C -2.0 °C 1011.2 hPa SSW 8 km/h 14 km/h 71% 0.00 mm 0.00 W/m2 unknown
06:19 3.0 °C -2.0 °C 1011.2 hPa SW 8 km/h 11 km/h 71% 0.00 mm 0.00 W/m2 unknown
06:24 3.0 °C -2.0 °C 1011.3 hPa SW 7 km/h 11 km/h 71% 0.00 mm 0.00 W/m2 unknown
06:29 3.0 °C -2.0 °C 1011.3 hPa West 7 km/h 10 km/h 70% 0.00 mm 0.00 W/m2 unknown
06:34 3.0 °C -2.0 °C 1011.6 hPa WSW 7 km/h 10 km/h 69% 0.00 mm 0.00 W/m2 unknown
06:39 3.0 °C -2.0 °C 1011.7 hPa SW 8 km/h 10 km/h 69% 0.00 mm 0.00 W/m2 unknown
06:44 3.0 °C -2.0 °C 1011.7 hPa WSW 6 km/h 10 km/h 68% 0.00 mm 0.00 W/m2 unknown
06:49 3.0 °C -2.0 °C 1011.8 hPa West 7 km/h 8 km/h 69% 0.00 mm 0.00 W/m2 unknown
06:54 3.0 °C -3.0 °C 1011.8 hPa West 6 km/h 9 km/h 68% 0.00 mm 0.00 W/m2 unknown
06:59 3.0 °C -2.0 °C 1011.9 hPa WSW 5 km/h 10 km/h 69% 0.00 mm 0.00 W/m2 unknown
07:04 3.0 °C -3.0 °C 1011.9 hPa WSW 5 km/h 8 km/h 69% 0.00 mm 0.00 W/m2 unknown
07:09 3.0 °C -2.0 °C 1011.9 hPa WSW 5 km/h 8 km/h 70% 0.00 mm 0.00 W/m2 unknown
07:14 3.0 °C -2.0 °C 1012.0 hPa WNW 3 km/h 8 km/h 71% 0.00 mm 0.00 W/m2 unknown
07:19 2.0 °C -3.0 °C 1012.1 hPa WSW 5 km/h 6 km/h 73% 0.00 mm 0.00 W/m2 unknown
07:24 2.0 °C -3.0 °C 1012.1 hPa SW 8 km/h 10 km/h 73% 0.00 mm 0.00 W/m2 unknown
07:29 2.0 °C -2.0 °C 1012.2 hPa South 10 km/h 15 km/h 73% 0.00 mm 0.00 W/m2 unknown
07:34 2.0 °C -2.0 °C 1012.2 hPa SSW 8 km/h 14 km/h 72% 0.00 mm 0.00 W/m2 unknown
07:39 3.0 °C -2.0 °C 1012.4 hPa WSW 5 km/h 10 km/h 71% 0.00 mm 0.00 W/m2 unknown
07:44 3.0 °C -2.0 °C 1012.4 hPa West 8 km/h 11 km/h 69% 0.00 mm 5.00 W/m2 unknown
07:49 3.0 °C -2.0 °C 1012.4 hPa WNW 8 km/h 11 km/h 67% 0.00 mm 7.00 W/m2 unknown
07:54 3.0 °C -2.0 °C 1012.3 hPa WNW 6 km/h 11 km/h 66% 0.00 mm 9.00 W/m2 unknown
07:59 3.0 °C -2.0 °C 1012.5 hPa WNW 6 km/h 8 km/h 67% 0.00 mm 11.00 W/m2 unknown
08:04 3.0 °C -2.0 °C 1012.5 hPa West 4 km/h 8 km/h 68% 0.00 mm 12.00 W/m2 unknown
08:09 3.0 °C -2.0 °C 1012.6 hPa WNW 3 km/h 6 km/h 70% 0.00 mm 16.00 W/m2 unknown
08:14 2.0 °C -2.0 °C 1012.7 hPa WNW 4 km/h 6 km/h 72% 0.00 mm 18.00 W/m2 unknown
08:19 2.0 °C -2.0 °C 1012.7 hPa NW 4 km/h 6 km/h 72% 0.00 mm 19.00 W/m2 unknown
08:24 2.0 °C -2.0 °C 1012.7 hPa NW 4 km/h 6 km/h 71% 0.00 mm 21.00 W/m2 unknown
08:29 3.0 °C -2.0 °C 1012.9 hPa NW 3 km/h 6 km/h 71% 0.00 mm 37.00 W/m2 unknown
08:34 3.0 °C -2.0 °C 1013.0 hPa WNW 4 km/h 6 km/h 70% 0.00 mm 77.00 W/m2 unknown
08:39 3.0 °C -2.0 °C 1013.1 hPa WSW 5 km/h 6 km/h 70% 0.00 mm 91.00 W/m2 unknown
08:44 3.0 °C -2.0 °C 1013.1 hPa SW 7 km/h 10 km/h 70% 0.00 mm 105.00 W/m2 unknown
08:49 3.0 °C -1.0 °C 1013.1 hPa SSW 12 km/h 15 km/h 71% 0.00 mm 120.00 W/m2 unknown
08:54 4.0 °C -1.0 °C 1013.1 hPa SW 8 km/h 14 km/h 70% 0.00 mm 134.00 W/m2 unknown
08:59 4.0 °C -1.0 °C 1013.2 hPa West 7 km/h 8 km/h 71% 0.00 mm 151.00 W/m2 unknown
09:04 4.0 °C -1.0 °C 1013.1 hPa WSW 5 km/h 8 km/h 71% 0.00 mm 163.00 W/m2 unknown
09:09 4.0 °C -1.0 °C 1013.2 hPa WSW 6 km/h 8 km/h 70% 0.00 mm 179.00 W/m2 unknown
09:14 5.0 °C 0.0 °C 1013.3 hPa WSW 5 km/h 8 km/h 69% 0.00 mm 193.00 W/m2 unknown
09:19 5.0 °C 0.0 °C 1013.2 hPa SW 5 km/h 6 km/h 69% 0.00 mm 207.00 W/m2 unknown
09:24 6.0 °C 0.0 °C 1013.1 hPa SSW 5 km/h 6 km/h 67% 0.00 mm 220.00 W/m2 unknown
09:29 6.0 °C 0.0 °C 1013.2 hPa SSW 8 km/h 11 km/h 65% 0.00 mm 232.00 W/m2 unknown
09:34 6.0 °C 0.0 °C 1013.2 hPa SW 8 km/h 11 km/h 63% 0.00 mm 243.00 W/m2 unknown
09:39 6.0 °C 0.0 °C 1013.1 hPa SW 6 km/h 10 km/h 63% 0.00 mm 253.00 W/m2 unknown
09:44 6.0 °C 0.0 °C 1013.1 hPa SW 8 km/h 10 km/h 64% 0.00 mm 265.00 W/m2 unknown
09:49 7.0 °C 0.0 °C 1013.1 hPa SW 8 km/h 10 km/h 64% 0.00 mm 276.00 W/m2 unknown
09:54 7.0 °C 0.0 °C 1013.4 hPa SW 9 km/h 11 km/h 64% 0.00 mm 287.00 W/m2 unknown
09:59 7.0 °C 0.0 °C 1013.3 hPa WSW 11 km/h 14 km/h 63% 0.00 mm 299.00 W/m2 unknown
10:04 7.0 °C 0.0 °C 1013.4 hPa WSW 12 km/h 15 km/h 59% 0.00 mm 309.00 W/m2 unknown
10:09 8.0 °C 0.0 °C 1013.6 hPa WSW 5 km/h 14 km/h 59% 0.00 mm 318.00 W/m2 unknown
10:14 8.0 °C 0.0 °C 1013.5 hPa SW 7 km/h 10 km/h 59% 0.00 mm 329.00 W/m2 unknown
10:19 8.0 °C 0.0 °C 1013.4 hPa WSW 12 km/h 15 km/h 59% 0.00 mm 336.00 W/m2 unknown
10:24 8.0 °C 1.0 °C 1013.5 hPa WSW 11 km/h 14 km/h 60% 0.00 mm 345.00 W/m2 unknown
10:29 9.0 °C 0.0 °C 1013.8 hPa WNW 5 km/h 13 km/h 58% 0.00 mm 355.00 W/m2 unknown
10:34 9.0 °C 0.0 °C 1013.8 hPa West 6 km/h 8 km/h 56% 0.00 mm 366.00 W/m2 unknown
10:39 9.0 °C 0.0 °C 1014.0 hPa WSW 7 km/h 8 km/h 56% 0.00 mm 373.00 W/m2 unknown
10:44 9.0 °C 0.0 °C 1014.0 hPa WNW 7 km/h 8 km/h 56% 0.00 mm 381.00 W/m2 unknown
10:49 9.0 °C 0.0 °C 1014.0 hPa WNW 7 km/h 8 km/h 54% 0.00 mm 388.00 W/m2 unknown
10:54 9.0 °C 0.0 °C 1014.0 hPa West 11 km/h 13 km/h 53% 0.00 mm 396.00 W/m2 unknown
10:59 9.0 °C 0.0 °C 1014.1 hPa WSW 11 km/h 13 km/h 53% 0.00 mm 404.00 W/m2 unknown
11:04 10.0 °C 0.0 °C 1014.3 hPa WNW 14 km/h 16 km/h 53% 0.00 mm 411.00 W/m2 unknown
11:09 10.0 °C 0.0 °C 1014.4 hPa West 14 km/h 17 km/h 51% 0.00 mm 418.00 W/m2 unknown
11:14 10.0 °C 0.0 °C 1014.8 hPa WNW 14 km/h 19 km/h 51% 0.00 mm 424.00 W/m2 unknown
11:19 10.0 °C 0.0 °C 1014.9 hPa WNW 14 km/h 19 km/h 51% 0.00 mm 429.00 W/m2 unknown
11:24 10.0 °C 0.0 °C 1014.9 hPa WNW 13 km/h 19 km/h 51% 0.00 mm 436.00 W/m2 unknown
11:29 10.0 °C 0.0 °C 1014.5 hPa WNW 11 km/h 16 km/h 50% 0.00 mm 441.00 W/m2 unknown
11:34 11.0 °C 0.0 °C 1014.4 hPa WNW 10 km/h 14 km/h 49% 0.00 mm 446.00 W/m2 unknown
11:39 11.0 °C 0.0 °C 1014.4 hPa West 11 km/h 15 km/h 49% 0.00 mm 450.00 W/m2 unknown
11:44 11.0 °C 0.0 °C 1014.2 hPa West 10 km/h 14 km/h 48% 0.00 mm 455.00 W/m2 unknown
11:49 11.0 °C 0.0 °C 1014.2 hPa West 7 km/h 13 km/h 48% 0.00 mm 461.00 W/m2 unknown
11:54 11.0 °C 0.0 °C 1014.1 hPa West 6 km/h 8 km/h 48% 0.00 mm 462.00 W/m2 unknown
11:59 11.0 °C 0.0 °C 1014.1 hPa West 8 km/h 11 km/h 45% 0.00 mm 466.00 W/m2 unknown
12:04 12.0 °C 0.0 °C 1013.8 hPa West 8 km/h 11 km/h 45% 0.00 mm 469.00 W/m2 unknown
12:09 12.0 °C 0.0 °C 1013.8 hPa West 6 km/h 10 km/h 45% 0.00 mm 473.00 W/m2 unknown
12:14 12.0 °C 1.0 °C 1013.8 hPa West 8 km/h 11 km/h 45% 0.00 mm 475.00 W/m2 unknown
12:19 12.0 °C 1.0 °C 1013.7 hPa WSW 9 km/h 11 km/h 45% 0.00 mm 476.00 W/m2 unknown
12:24 13.0 °C 1.0 °C 1013.7 hPa West 9 km/h 11 km/h 45% 0.00 mm 478.00 W/m2 unknown
12:29 13.0 °C 1.0 °C 1013.7 hPa WSW 10 km/h 11 km/h 45% 0.00 mm 478.00 W/m2 unknown
12:34 13.0 °C 0.0 °C 1013.6 hPa WSW 9 km/h 11 km/h 43% 0.00 mm 480.00 W/m2 unknown
12:39 13.0 °C 1.0 °C 1013.4 hPa WSW 9 km/h 11 km/h 44% 0.00 mm 480.00 W/m2 unknown
12:44 13.0 °C 0.0 °C 1013.4 hPa WSW 10 km/h 13 km/h 42% 0.00 mm 480.00 W/m2 unknown
12:49 13.0 °C 1.0 °C 1013.4 hPa WSW 9 km/h 13 km/h 42% 0.00 mm 482.00 W/m2 unknown
12:54 14.0 °C 0.0 °C 1013.3 hPa WSW 10 km/h 15 km/h 40% 0.00 mm 482.00 W/m2 unknown
12:59 14.0 °C -1.0 °C 1013.3 hPa West 10 km/h 14 km/h 38% 0.00 mm 478.00 W/m2 unknown
13:04 14.0 °C 0.0 °C 1013.1 hPa WSW 10 km/h 13 km/h 39% 0.00 mm 476.00 W/m2 unknown
13:09 14.0 °C -1.0 °C 1013.1 hPa WSW 11 km/h 13 km/h 37% 0.00 mm 475.00 W/m2 unknown
13:14 14.0 °C 0.0 °C 1013.0 hPa WSW 11 km/h 15 km/h 38% 0.00 mm 475.00 W/m2 unknown
13:19 14.0 °C -1.0 °C 1013.0 hPa WSW 11 km/h 14 km/h 36% 0.00 mm 471.00 W/m2 unknown
13:24 14.0 °C -1.0 °C 1013.0 hPa WSW 10 km/h 13 km/h 36% 0.00 mm 468.00 W/m2 unknown
13:29 14.0 °C -1.0 °C 1013.0 hPa West 11 km/h 15 km/h 36% 0.00 mm 464.00 W/m2 unknown
13:34 14.0 °C -1.0 °C 1013.1 hPa WSW 10 km/h 14 km/h 35% 0.00 mm 461.00 W/m2 unknown
13:39 14.0 °C -1.0 °C 1013.1 hPa West 11 km/h 13 km/h 35% 0.00 mm 459.00 W/m2 unknown
13:44 14.0 °C -2.0 °C 1013.2 hPa West 10 km/h 13 km/h 33% 0.00 mm 455.00 W/m2 unknown
13:49 14.0 °C -2.0 °C 1013.3 hPa West 10 km/h 13 km/h 34% 0.00 mm 448.00 W/m2 unknown
13:54 14.0 °C -2.0 °C 1013.3 hPa West 10 km/h 15 km/h 33% 0.00 mm 443.00 W/m2 unknown
13:59 14.0 °C -2.0 °C 1013.3 hPa West 10 km/h 14 km/h 33% 0.00 mm 438.00 W/m2 unknown
14:04 14.0 °C -2.0 °C 1013.2 hPa West 8 km/h 13 km/h 32% 0.00 mm 432.00 W/m2 unknown
14:09 14.0 °C -2.0 °C 1013.3 hPa WSW 11 km/h 15 km/h 32% 0.00 mm 425.00 W/m2 unknown
14:14 14.0 °C -2.0 °C 1013.2 hPa WSW 11 km/h 14 km/h 32% 0.00 mm 418.00 W/m2 unknown
14:19 14.0 °C -2.0 °C 1013.2 hPa West 9 km/h 13 km/h 32% 0.00 mm 413.00 W/m2 unknown
14:24 14.0 °C -2.0 °C 1013.1 hPa WSW 8 km/h 11 km/h 32% 0.00 mm 404.00 W/m2 unknown
14:29 14.0 °C -3.0 °C 1013.1 hPa WSW 14 km/h 19 km/h 30% 0.00 mm 399.00 W/m2 unknown
14:34 15.0 °C -4.0 °C 1013.0 hPa West 13 km/h 19 km/h 29% 0.00 mm 392.00 W/m2 unknown
14:39 15.0 °C -4.0 °C 1013.0 hPa WNW 9 km/h 19 km/h 28% 0.00 mm 383.00 W/m2 unknown
14:44 15.0 °C -4.0 °C 1013.0 hPa West 10 km/h 11 km/h 28% 0.00 mm 376.00 W/m2 unknown
14:49 15.0 °C -3.0 °C 1013.0 hPa West 9 km/h 11 km/h 29% 0.00 mm 366.00 W/m2 unknown
14:54 15.0 °C -3.0 °C 1013.0 hPa West 9 km/h 11 km/h 30% 0.00 mm 359.00 W/m2 unknown
14:59 15.0 °C -4.0 °C 1013.0 hPa WNW 8 km/h 11 km/h 28% 0.00 mm 350.00 W/m2 unknown
15:04 15.0 °C -3.0 °C 1012.9 hPa WSW 8 km/h 10 km/h 29% 0.00 mm 339.00 W/m2 unknown
15:09 15.0 °C -3.0 °C 1012.9 hPa West 7 km/h 10 km/h 29% 0.00 mm 330.00 W/m2 unknown
15:14 15.0 °C -4.0 °C 1012.9 hPa West 5 km/h 10 km/h 28% 0.00 mm 318.00 W/m2 unknown
15:19 15.0 °C -3.0 °C 1012.9 hPa West 9 km/h 13 km/h 29% 0.00 mm 308.00 W/m2 unknown
15:24 15.0 °C -3.0 °C 1013.1 hPa WNW 8 km/h 13 km/h 29% 0.00 mm 295.00 W/m2 unknown
15:29 15.0 °C -4.0 °C 1013.1 hPa West 8 km/h 11 km/h 28% 0.00 mm 287.00 W/m2 unknown
15:34 15.0 °C -4.0 °C 1013.0 hPa West 6 km/h 10 km/h 28% 0.00 mm 274.00 W/m2 unknown
15:39 15.0 °C -4.0 °C 1013.0 hPa West 7 km/h 8 km/h 28% 0.00 mm 264.00 W/m2 unknown
15:44 15.0 °C -4.0 °C 1012.9 hPa West 9 km/h 13 km/h 28% 0.00 mm 251.00 W/m2 unknown
15:49 14.0 °C -4.0 °C 1013.0 hPa West 8 km/h 13 km/h 28% 0.00 mm 236.00 W/m2 unknown
15:54 14.0 °C -4.0 °C 1013.0 hPa WSW 6 km/h 10 km/h 29% 0.00 mm 221.00 W/m2 unknown
15:59 14.0 °C -4.0 °C 1012.8 hPa WSW 6 km/h 10 km/h 29% 0.00 mm 209.00 W/m2 unknown
16:04 14.0 °C -3.0 °C 1012.6 hPa WSW 5 km/h 10 km/h 30% 0.00 mm 193.00 W/m2 unknown
16:09 14.0 °C -3.0 °C 1012.6 hPa SW 6 km/h 8 km/h 30% 0.00 mm 178.00 W/m2 unknown
16:14 14.0 °C -4.0 °C 1012.7 hPa WSW 6 km/h 8 km/h 29% 0.00 mm 162.00 W/m2 unknown
16:19 14.0 °C -3.0 °C 1012.7 hPa SW 6 km/h 6 km/h 31% 0.00 mm 141.00 W/m2 unknown
16:24 14.0 °C -3.0 °C 1012.7 hPa SW 6 km/h 6 km/h 31% 0.00 mm 132.00 W/m2 unknown
16:29 14.0 °C -3.0 °C 1012.9 hPa WSW 5 km/h 6 km/h 31% 0.00 mm 67.00 W/m2 unknown
16:34 14.0 °C -3.0 °C 1012.9 hPa West 3 km/h 6 km/h 33% 0.00 mm 28.00 W/m2 unknown
16:39 14.0 °C -2.0 °C 1012.9 hPa WNW 3 km/h 5 km/h 34% 0.00 mm 26.00 W/m2 unknown
16:44 13.0 °C -1.0 °C 1013.0 hPa West 3 km/h 4 km/h 37% 0.00 mm 25.00 W/m2 unknown
16:49 13.0 °C -2.0 °C 1013.0 hPa WNW 2 km/h 4 km/h 37% 0.00 mm 23.00 W/m2 unknown
16:54 13.0 °C -2.0 °C 1012.9 hPa WNW 1 km/h 2 km/h 36% 0.00 mm 21.00 W/m2 unknown
16:59 12.0 °C -2.0 °C 1012.8 hPa WNW 1 km/h 2 km/h 37% 0.00 mm 19.00 W/m2 unknown
17:04 12.0 °C -1.0 °C 1012.8 hPa WNW 1 km/h 2 km/h 41% 0.00 mm 16.00 W/m2 unknown
17:09 12.0 °C -1.0 °C 1012.8 hPa West 3 km/h 4 km/h 43% 0.00 mm 14.00 W/m2 unknown
17:14 11.0 °C -1.0 °C 1012.8 hPa WSW 3 km/h 6 km/h 44% 0.00 mm 12.00 W/m2 unknown
17:19 11.0 °C -1.0 °C 1012.7 hPa SW 3 km/h 5 km/h 43% 0.00 mm 9.00 W/m2 unknown
17:24 11.0 °C 0.0 °C 1012.7 hPa SW 3 km/h 4 km/h 47% 0.00 mm 5.00 W/m2 unknown
17:29 10.0 °C 0.0 °C 1012.7 hPa SW 3 km/h 4 km/h 47% 0.00 mm 0.00 W/m2 unknown
17:34 10.0 °C 0.0 °C 1012.7 hPa SW 2 km/h 4 km/h 49% 0.00 mm 0.00 W/m2 unknown
17:39 10.0 °C -1.0 °C 1012.6 hPa SW 2 km/h 3 km/h 49% 0.00 mm 0.00 W/m2 unknown
17:44 9.0 °C -1.0 °C 1012.7 hPa Calm   2 km/h 52% 0.00 mm 0.00 W/m2 unknown
17:49 9.0 °C -1.0 °C 1012.7 hPa SW 2 km/h 4 km/h 52% 0.00 mm 0.00 W/m2 unknown
17:54 8.0 °C -1.0 °C 1012.8 hPa SW 3 km/h 6 km/h 52% 0.00 mm 0.00 W/m2 unknown
17:59 8.0 °C 0.0 °C 1012.8 hPa SW 3 km/h 5 km/h 55% 0.00 mm 0.00 W/m2 unknown
18:04 8.0 °C -1.0 °C 1013.1 hPa SW 2 km/h 3 km/h 54% 0.00 mm 0.00 W/m2 unknown
18:09 8.0 °C 0.0 °C 1013.1 hPa Calm   2 km/h 57% 0.00 mm 0.00 W/m2 unknown
18:14 7.0 °C 0.0 °C 1013.2 hPa Calm     59% 0.00 mm 0.00 W/m2 unknown
18:19 7.0 °C 0.0 °C 1013.2 hPa Calm     58% 0.00 mm 0.00 W/m2 unknown
18:24 7.0 °C -1.0 °C 1013.3 hPa Calm     56% 0.00 mm 0.00 W/m2 unknown
18:29 7.0 °C -1.0 °C 1013.3 hPa SW 3 km/h 5 km/h 58% 0.00 mm 0.00 W/m2 unknown
18:34 7.0 °C -1.0 °C 1013.2 hPa SW 4 km/h 6 km/h 56% 0.00 mm 0.00 W/m2 unknown
18:39 7.0 °C -1.0 °C 1013.4 hPa SSW 4 km/h 6 km/h 57% 0.00 mm 0.00 W/m2 unknown
18:44 7.0 °C -1.0 °C 1013.4 hPa SW 3 km/h 5 km/h 58% 0.00 mm 0.00 W/m2 unknown
18:49 7.0 °C -1.0 °C 1013.3 hPa SW 4 km/h 6 km/h 58% 0.00 mm 0.00 W/m2 unknown
18:54 7.0 °C -1.0 °C 1013.3 hPa SW 4 km/h 6 km/h 58% 0.00 mm 0.00 W/m2 unknown
18:59 6.0 °C -1.0 °C 1013.3 hPa SW 5 km/h 6 km/h 60% 0.00 mm 0.00 W/m2 unknown
19:04 6.0 °C -1.0 °C 1013.3 hPa SW 5 km/h 6 km/h 60% 0.00 mm 0.00 W/m2 unknown
19:09 6.0 °C -1.0 °C 1013.3 hPa SW 4 km/h 6 km/h 62% 0.00 mm 0.00 W/m2 unknown
19:14 6.0 °C -1.0 °C 1013.3 hPa WSW 5 km/h 6 km/h 60% 0.00 mm 0.00 W/m2 unknown
19:19 6.0 °C -2.0 °C 1013.4 hPa West 5 km/h 6 km/h 57% 0.00 mm 0.00 W/m2 unknown
19:24 6.0 °C -2.0 °C 1013.4 hPa West 5 km/h 6 km/h 57% 0.00 mm 0.00 W/m2 unknown
19:29 6.0 °C -2.0 °C 1013.3 hPa West 5 km/h 6 km/h 57% 0.00 mm 0.00 W/m2 unknown
19:34 6.0 °C -2.0 °C 1013.2 hPa West 6 km/h 8 km/h 58% 0.00 mm 0.00 W/m2 unknown
19:39 6.0 °C -2.0 °C 1013.1 hPa West 6 km/h 8 km/h 58% 0.00 mm 0.00 W/m2 unknown
19:44 6.0 °C -2.0 °C 1013.2 hPa West 6 km/h 8 km/h 56% 0.00 mm 0.00 W/m2 unknown
19:49 6.0 °C -2.0 °C 1013.2 hPa WSW 6 km/h 6 km/h 55% 0.00 mm 0.00 W/m2 unknown
19:54 6.0 °C -2.0 °C 1013.2 hPa West 6 km/h 6 km/h 54% 0.00 mm 0.00 W/m2 unknown
19:59 6.0 °C -2.0 °C 1013.2 hPa West 7 km/h 8 km/h 55% 0.00 mm 0.00 W/m2 unknown
20:04 6.0 °C -3.0 °C 1013.2 hPa West 8 km/h 8 km/h 55% 0.00 mm 0.00 W/m2 unknown
20:09 6.0 °C -3.0 °C 1013.1 hPa West 7 km/h 10 km/h 56% 0.00 mm 0.00 W/m2 unknown
20:14 6.0 °C -2.0 °C 1013.0 hPa West 5 km/h 10 km/h 57% 0.00 mm 0.00 W/m2 unknown
20:19 6.0 °C -2.0 °C 1013.0 hPa West 6 km/h 8 km/h 57% 0.00 mm 0.00 W/m2 unknown
20:24 6.0 °C -2.0 °C 1013.2 hPa West 4 km/h 8 km/h 60% 0.00 mm 0.00 W/m2 unknown
20:29 5.0 °C -2.0 °C 1013.3 hPa WNW 5 km/h 6 km/h 61% 0.00 mm 0.00 W/m2 unknown
20:34 5.0 °C -2.0 °C 1013.3 hPa West 5 km/h 8 km/h 61% 0.00 mm 0.00 W/m2 unknown
20:39 5.0 °C -2.0 °C 1013.1 hPa WSW 6 km/h 8 km/h 60% 0.00 mm 0.00 W/m2 unknown
20:44 6.0 °C -2.0 °C 1013.0 hPa WSW 5 km/h 8 km/h 59% 0.00 mm 0.00 W/m2 unknown
20:49 6.0 °C -2.0 °C 1012.7 hPa SW 5 km/h 6 km/h 58% 0.00 mm 0.00 W/m2 unknown
20:54 6.0 °C -2.0 °C 1012.7 hPa SW 4 km/h 6 km/h 58% 0.00 mm 0.00 W/m2 unknown
20:59 5.0 °C -2.0 °C 1012.6 hPa SW 4 km/h 6 km/h 58% 0.00 mm 0.00 W/m2 unknown
21:04 5.0 °C -2.0 °C 1012.6 hPa SW 5 km/h 6 km/h 59% 0.00 mm 0.00 W/m2 unknown
21:09 6.0 °C -2.0 °C 1012.6 hPa WSW 5 km/h 6 km/h 59% 0.00 mm 0.00 W/m2 unknown
21:14 5.0 °C -2.0 °C 1012.6 hPa WSW 5 km/h 6 km/h 59% 0.00 mm 0.00 W/m2 unknown
21:19 5.0 °C -2.0 °C 1012.9 hPa WSW 5 km/h 6 km/h 60% 0.00 mm 0.00 W/m2 unknown
21:24 5.0 °C -2.0 °C 1012.9 hPa WSW 6 km/h 8 km/h 61% 0.00 mm 0.00 W/m2 unknown
21:29 4.0 °C -2.0 °C 1012.9 hPa WSW 7 km/h 8 km/h 63% 0.00 mm 0.00 W/m2 unknown
21:34 4.0 °C -2.0 °C 1012.9 hPa WSW 5 km/h 8 km/h 64% 0.00 mm 0.00 W/m2 unknown
21:39 4.0 °C -2.0 °C 1013.0 hPa WSW 7 km/h 8 km/h 64% 0.00 mm 0.00 W/m2 unknown
21:44 4.0 °C -2.0 °C 1012.8 hPa WSW 6 km/h 8 km/h 64% 0.00 mm 0.00 W/m2 unknown
21:49 4.0 °C -2.0 °C 1012.9 hPa WSW 7 km/h 10 km/h 65% 0.00 mm 0.00 W/m2 unknown
21:54 4.0 °C -2.0 °C 1012.9 hPa WSW 7 km/h 10 km/h 66% 0.00 mm 0.00 W/m2 unknown
21:59 4.0 °C -2.0 °C 1012.8 hPa WSW 6 km/h 10 km/h 66% 0.00 mm 0.00 W/m2 unknown
22:04 4.0 °C -2.0 °C 1012.7 hPa WSW 6 km/h 8 km/h 67% 0.00 mm 0.00 W/m2 unknown
22:09 3.0 °C -2.0 °C 1012.6 hPa WSW 7 km/h 10 km/h 68% 0.00 mm 0.00 W/m2 unknown
22:14 3.0 °C -2.0 °C 1012.5 hPa WSW 8 km/h 10 km/h 68% 0.00 mm 0.00 W/m2 unknown
22:19 3.0 °C -2.0 °C 1012.3 hPa WSW 8 km/h 11 km/h 68% 0.00 mm 0.00 W/m2 unknown
22:24 3.0 °C -2.0 °C 1012.3 hPa WSW 5 km/h 11 km/h 68% 0.00 mm 0.00 W/m2 unknown
22:29 4.0 °C -2.0 °C 1012.4 hPa WSW 5 km/h 8 km/h 68% 0.00 mm 0.00 W/m2 unknown
22:34 4.0 °C -2.0 °C 1012.5 hPa WSW 3 km/h 6 km/h 68% 0.00 mm 0.00 W/m2 unknown
22:39 4.0 °C -2.0 °C 1012.4 hPa WSW 3 km/h 6 km/h 67% 0.00 mm 0.00 W/m2 unknown
22:44 4.0 °C -2.0 °C 1012.4 hPa WSW 4 km/h 6 km/h 68% 0.00 mm 0.00 W/m2 unknown
22:49 4.0 °C -2.0 °C 1012.3 hPa SW 4 km/h 6 km/h 68% 0.00 mm 0.00 W/m2 unknown
22:54 4.0 °C -2.0 °C 1012.2 hPa SW 5 km/h 6 km/h 68% 0.00 mm 0.00 W/m2 unknown
22:59 3.0 °C -2.0 °C 1012.2 hPa SW 4 km/h 6 km/h 69% 0.00 mm 0.00 W/m2 unknown
23:04 3.0 °C -2.0 °C 1012.2 hPa South 3 km/h 6 km/h 70% 0.00 mm 0.00 W/m2 unknown
23:09 3.0 °C -2.0 °C 1012.2 hPa SE 3 km/h 5 km/h 70% 0.00 mm 0.00 W/m2 unknown
23:14 3.0 °C -2.0 °C 1012.1 hPa SSW 5 km/h 6 km/h 69% 0.00 mm 0.00 W/m2 unknown
23:19 3.0 °C -2.0 °C 1012.0 hPa WSW 5 km/h 6 km/h 69% 0.00 mm 0.00 W/m2 unknown
23:24 3.0 °C -2.0 °C 1012.0 hPa West 11 km/h 16 km/h 70% 0.00 mm 0.00 W/m2 unknown
23:29 3.0 °C -2.0 °C 1011.9 hPa West 15 km/h 19 km/h 71% 0.00 mm 0.00 W/m2 unknown
23:34 3.0 °C -2.0 °C 1011.7 hPa West 14 km/h 19 km/h 71% 0.00 mm 0.00 W/m2 unknown
23:39 4.0 °C -2.0 °C 1011.7 hPa West 14 km/h 19 km/h 69% 0.00 mm 0.00 W/m2 unknown
23:44 5.0 °C -2.0 °C 1011.6 hPa West 14 km/h 19 km/h 66% 0.00 mm 0.00 W/m2 unknown
23:49 5.0 °C -2.0 °C 1011.7 hPa West 11 km/h 19 km/h 64% 0.00 mm 0.00 W/m2 unknown
23:54 5.0 °C -2.0 °C 1011.4 hPa West 13 km/h 17 km/h 63% 0.00 mm 0.00 W/m2 unknown
23:59 5.0 °C -2.0 °C 1011.4 hPa West 14 km/h 19 km/h 62% 0.00 mm 0.00 W/m2 unknown
Stazione Meteorologica MeteoMincio Rivalta s/M (MN)
Con i complimenti di Weather Underground - 4 mb



METEO PILLOLE
Il disastro meteorologico più costoso
Bahamas, Florida e Louisiana
Nel 1992 il piccolo ma distruttivo uragano Andrew provoca danni valutati in 25 miliardi di dollari.
Share

Non seguire questo link o sarai bannato dal sito!